Time;durP1;ratioP1;P1;durP2;ratioP2;P2;SDS_P1;SDS_P2;PMS_P1;PMS_P2;Temp;Humidity;BMP_temperature;BMP_pressure;BME280_temperature;BME280_humidity;BME280_pressure;Samples;Min_cycle;Max_cycle;Signal;HPM_P1;HPM_P2
2021/10/15 00:01:46;;;;;;;;;;;13.50;99.90;;;;;;5064394;28;19960;-80
2021/10/15 00:04:12;;;;;;;;;;;13.60;99.90;;;;;;5069920;28;19918;-79
2021/10/15 00:06:37;;;;;;;;;;;13.50;99.90;;;;;;5069827;28;19913;-80
2021/10/15 00:09:03;;;;;;;;;;;13.50;99.90;;;;;;5066847;28;19944;-79
2021/10/15 00:11:28;;;;;;;;;;;13.50;99.90;;;;;;5068046;28;19913;-80
2021/10/15 00:13:54;;;;;;;;;;;13.50;99.90;;;;;;5056720;28;19917;-79
2021/10/15 00:16:20;;;;;;;;;;;13.50;99.90;;;;;;5059373;28;20316;-79
2021/10/15 00:18:45;;;;;;;;;;;13.50;99.90;;;;;;5063998;28;19916;-79
2021/10/15 00:21:11;;;;;;;;;;;13.50;99.90;;;;;;5064569;28;19970;-79
2021/10/15 00:23:36;;;;;;;;;;;13.50;99.90;;;;;;5062190;28;19940;-79
2021/10/15 00:26:02;;;;;;;;;;;13.50;99.90;;;;;;5062942;28;20003;-80
2021/10/15 00:28:28;;;;;;;;;;;13.50;99.90;;;;;;5066998;28;19913;-80
2021/10/15 00:30:57;;;;;;;;;;;13.50;99.90;;;;;;5058543;28;20417;-80
2021/10/15 00:33:22;;;;;;;;;;;13.50;99.90;;;;;;5062853;28;19913;-80
2021/10/15 00:35:48;;;;;;;;;;;13.50;99.90;;;;;;5069288;28;20426;-80
2021/10/15 00:38:13;;;;;;;;;;;13.50;99.90;;;;;;5081295;28;19960;-79
2021/10/15 00:40:39;;;;;;;;;;;13.50;99.90;;;;;;5069166;28;20296;-79
2021/10/15 00:43:04;;;;;;;;;;;13.50;99.90;;;;;;5056497;28;20006;-80
2021/10/15 00:45:30;;;;;;;;;;;13.60;99.90;;;;;;5057257;28;20209;-81
2021/10/15 00:47:56;;;;;;;;;;;13.60;99.90;;;;;;5061471;28;19951;-80
2021/10/15 00:50:21;;;;;;;;;;;13.60;99.90;;;;;;5076526;28;20211;-79
2021/10/15 00:52:47;;;;;;;;;;;13.60;99.90;;;;;;5055884;28;19916;-80
2021/10/15 00:55:13;;;;;;;;;;;13.60;99.90;;;;;;5065280;28;19912;-80
2021/10/15 00:57:38;;;;;;;;;;;13.60;99.90;;;;;;5074446;28;19912;-80
2021/10/15 01:00:04;;;;;;;;;;;13.60;99.90;;;;;;5069020;28;19931;-80
2021/10/15 01:02:30;;;;;;;;;;;13.70;99.90;;;;;;5073349;28;19919;-79
2021/10/15 01:04:56;;;;;;;;;;;13.70;99.90;;;;;;5065480;28;20473;-80
2021/10/15 01:07:22;;;;;;;;;;;13.70;99.90;;;;;;5060542;28;20010;-80
2021/10/15 01:09:48;;;;;;;;;;;13.70;99.90;;;;;;5066063;28;19916;-78
2021/10/15 01:12:14;;;;;;;;;;;13.70;99.90;;;;;;5068877;28;19927;-80
2021/10/15 01:14:40;;;;;;;;;;;13.70;99.90;;;;;;5080423;28;19913;-81
2021/10/15 01:17:06;;;;;;;;;;;13.70;99.90;;;;;;5066126;28;19913;-79
2021/10/15 01:19:32;;;;;;;;;;;13.70;99.90;;;;;;5067558;28;20451;-80
2021/10/15 01:22:00;;;;;;;;;;;13.60;99.90;;;;;;5072637;28;19924;-79
2021/10/15 01:24:26;;;;;;;;;;;13.70;99.90;;;;;;5058164;28;19946;-80
2021/10/15 01:26:51;;;;;;;;;;;13.70;99.90;;;;;;5061346;28;19917;-80
2021/10/15 01:29:17;;;;;;;;;;;13.60;99.90;;;;;;5067539;28;20016;-79
2021/10/15 01:31:42;;;;;;;;;;;13.60;99.90;;;;;;5068566;28;19916;-81
2021/10/15 01:34:08;;;;;;;;;;;13.60;99.90;;;;;;5068054;28;19917;-80
2021/10/15 01:36:33;;;;;;;;;;;13.60;99.90;;;;;;5071286;28;19971;-80
2021/10/15 01:38:59;;;;;;;;;;;13.60;99.90;;;;;;5067018;28;19927;-82
2021/10/15 01:41:24;;;;;;;;;;;13.70;99.90;;;;;;5070771;28;19925;-80
2021/10/15 01:43:50;;;;;;;;;;;13.70;99.90;;;;;;5067322;28;19942;-79
2021/10/15 01:46:16;;;;;;;;;;;13.70;99.90;;;;;;5066027;28;20593;-79
2021/10/15 01:48:41;;;;;;;;;;;13.70;99.90;;;;;;5071976;28;20270;-80
2021/10/15 01:51:07;;;;;;;;;;;13.70;99.90;;;;;;5067542;28;19919;-80
2021/10/15 01:53:32;;;;;;;;;;;13.70;99.90;;;;;;5065300;28;19916;-80
2021/10/15 01:55:58;;;;;;;;;;;13.70;99.90;;;;;;5069532;28;19963;-80
2021/10/15 01:58:23;;;;;;;;;;;13.70;99.90;;;;;;5065264;28;19921;-81
2021/10/15 02:00:49;;;;;;;;;;;13.70;99.90;;;;;;5070602;28;19916;-80
2021/10/15 02:03:15;;;;;;;;;;;13.70;99.90;;;;;;5073196;28;19923;-79
2021/10/15 02:05:41;;;;;;;;;;;13.70;99.90;;;;;;5073796;28;19918;-80
2021/10/15 02:08:07;;;;;;;;;;;13.70;99.90;;;;;;5067420;28;19923;-80
2021/10/15 02:10:32;;;;;;;;;;;13.70;99.90;;;;;;5069739;28;19966;-81
2021/10/15 02:12:58;;;;;;;;;;;13.70;99.90;;;;;;5074925;28;20464;-80
2021/10/15 02:15:23;;;;;;;;;;;13.70;99.90;;;;;;5060681;28;19973;-80
2021/10/15 02:17:50;;;;;;;;;;;13.70;99.90;;;;;;5059723;28;19920;-80
2021/10/15 02:20:16;;;;;;;;;;;13.60;99.90;;;;;;5061342;28;20456;-80
2021/10/15 02:22:43;;;;;;;;;;;13.60;99.90;;;;;;5062852;28;19916;-80
2021/10/15 02:25:09;;;;;;;;;;;13.70;99.90;;;;;;5068450;28;19920;-80
2021/10/15 02:27:35;;;;;;;;;;;13.70;99.90;;;;;;5072766;28;19920;-79
2021/10/15 02:30:00;;;;;;;;;;;13.70;99.90;;;;;;5070525;28;19920;-80
2021/10/15 02:32:26;;;;;;;;;;;13.70;99.90;;;;;;5072160;28;19923;-82
2021/10/15 02:34:51;;;;;;;;;;;13.70;99.90;;;;;;5056026;28;19967;-80
2021/10/15 02:37:17;;;;;;;;;;;13.70;99.90;;;;;;5062805;28;21740;-80
2021/10/15 02:39:43;;;;;;;;;;;13.80;99.90;;;;;;5061627;28;19947;-81
2021/10/15 02:42:09;;;;;;;;;;;13.80;99.90;;;;;;5071833;28;20011;-80
2021/10/15 02:44:34;;;;;;;;;;;13.80;99.90;;;;;;5068644;28;20011;-79
2021/10/15 02:47:00;;;;;;;;;;;13.70;99.90;;;;;;5066362;28;19916;-80
2021/10/15 02:49:26;;;;;;;;;;;13.80;99.90;;;;;;5065770;28;19913;-79
2021/10/15 02:51:51;;;;;;;;;;;13.70;99.90;;;;;;5058806;28;20375;-79
2021/10/15 02:54:17;;;;;;;;;;;13.70;99.90;;;;;;5070668;28;19912;-79
2021/10/15 02:56:43;;;;;;;;;;;13.70;99.90;;;;;;5066671;28;19913;-80
2021/10/15 02:59:08;;;;;;;;;;;13.70;99.90;;;;;;5068498;28;19963;-79
2021/10/15 03:01:34;;;;;;;;;;;13.70;99.90;;;;;;5068474;28;20220;-80
2021/10/15 03:04:00;;;;;;;;;;;13.60;99.90;;;;;;5072377;28;19917;-80
2021/10/15 03:06:25;;;;;;;;;;;13.60;99.90;;;;;;5074134;28;19923;-80
2021/10/15 03:08:51;;;;;;;;;;;13.60;99.90;;;;;;5068759;28;20008;-80
2021/10/15 03:11:16;;;;;;;;;;;13.70;99.90;;;;;;5068590;28;19966;-81
2021/10/15 03:13:42;;;;;;;;;;;13.60;99.90;;;;;;5069774;28;19913;-80
2021/10/15 03:16:08;;;;;;;;;;;13.70;99.90;;;;;;5071538;28;19916;-79
2021/10/15 03:18:33;;;;;;;;;;;13.60;99.90;;;;;;5077888;28;19916;-80
2021/10/15 03:20:59;;;;;;;;;;;13.70;99.90;;;;;;5068304;28;19916;-80
2021/10/15 03:23:24;;;;;;;;;;;13.60;99.90;;;;;;5069435;28;20329;-81
2021/10/15 03:25:50;;;;;;;;;;;13.60;99.90;;;;;;5067024;28;19917;-80
2021/10/15 03:28:15;;;;;;;;;;;13.70;99.90;;;;;;5065845;28;20459;-80
2021/10/15 03:30:41;;;;;;;;;;;13.70;99.90;;;;;;5061819;28;19916;-79
2021/10/15 03:33:06;;;;;;;;;;;13.70;99.90;;;;;;5068439;28;20326;-79
2021/10/15 03:35:32;;;;;;;;;;;13.70;99.90;;;;;;5074862;28;20019;-79
2021/10/15 03:37:58;;;;;;;;;;;13.70;99.90;;;;;;5070312;28;19920;-82
2021/10/15 03:40:23;;;;;;;;;;;13.70;99.90;;;;;;5062260;28;20004;-81
2021/10/15 03:42:50;;;;;;;;;;;13.80;99.90;;;;;;5081030;28;20312;-82
2021/10/15 03:45:15;;;;;;;;;;;13.90;99.90;;;;;;5057492;28;19913;-81
2021/10/15 03:47:41;;;;;;;;;;;13.90;99.90;;;;;;5067599;28;20391;-82
2021/10/15 03:50:07;;;;;;;;;;;13.90;99.90;;;;;;5066886;28;19977;-78
2021/10/15 03:52:33;;;;;;;;;;;14.00;99.90;;;;;;5075508;28;19975;-79
2021/10/15 03:54:59;;;;;;;;;;;14.00;99.90;;;;;;5071589;28;19912;-80
2021/10/15 03:57:24;;;;;;;;;;;14.00;99.90;;;;;;5060626;28;20375;-78
2021/10/15 03:59:50;;;;;;;;;;;14.00;99.90;;;;;;5072670;28;19953;-80
2021/10/15 04:02:15;;;;;;;;;;;14.10;99.90;;;;;;5068972;28;19919;-78
2021/10/15 04:04:41;;;;;;;;;;;14.10;99.90;;;;;;5074275;28;20223;-79
2021/10/15 04:07:07;;;;;;;;;;;14.10;99.90;;;;;;5057651;28;19920;-80
2021/10/15 04:09:32;;;;;;;;;;;14.10;99.90;;;;;;5063724;28;20257;-80
2021/10/15 04:11:58;;;;;;;;;;;14.10;99.90;;;;;;5073954;28;19920;-79
2021/10/15 04:14:23;;;;;;;;;;;14.10;99.90;;;;;;5068339;28;19909;-81
2021/10/15 04:16:49;;;;;;;;;;;14.10;99.90;;;;;;5074581;28;19944;-81
2021/10/15 04:19:15;;;;;;;;;;;14.10;99.90;;;;;;5073941;28;19920;-81
2021/10/15 04:21:40;;;;;;;;;;;14.10;99.90;;;;;;5065073;28;20000;-80
2021/10/15 04:24:06;;;;;;;;;;;14.10;99.90;;;;;;5058321;28;19913;-79
2021/10/15 04:26:31;;;;;;;;;;;14.10;99.90;;;;;;5058746;28;19923;-79
2021/10/15 04:28:57;;;;;;;;;;;14.10;99.90;;;;;;5074520;28;20040;-79
2021/10/15 04:31:23;;;;;;;;;;;14.20;99.90;;;;;;5068400;28;19920;-81
2021/10/15 04:33:48;;;;;;;;;;;14.10;99.90;;;;;;5072936;28;19962;-79
2021/10/15 04:36:14;;;;;;;;;;;14.20;99.90;;;;;;5060469;28;19928;-80
2021/10/15 04:38:39;;;;;;;;;;;14.20;99.90;;;;;;5061890;28;19955;-81
2021/10/15 04:41:05;;;;;;;;;;;14.10;99.90;;;;;;5060493;28;19913;-80
2021/10/15 04:43:31;;;;;;;;;;;14.20;99.90;;;;;;5056320;28;19922;-78
2021/10/15 04:45:56;;;;;;;;;;;14.10;99.90;;;;;;5061486;28;19982;-79
2021/10/15 04:48:22;;;;;;;;;;;14.20;99.90;;;;;;5064220;28;19959;-80
2021/10/15 04:50:47;;;;;;;;;;;14.20;99.90;;;;;;5065001;28;20377;-82
2021/10/15 04:53:13;;;;;;;;;;;14.20;99.90;;;;;;5059123;28;19992;-82
2021/10/15 04:55:38;;;;;;;;;;;14.20;99.90;;;;;;5061603;28;19974;-80
2021/10/15 04:58:04;;;;;;;;;;;14.10;99.90;;;;;;5071637;28;20003;-80
2021/10/15 05:00:31;;;;;;;;;;;14.10;99.90;;;;;;5071760;28;19950;-82
2021/10/15 05:02:56;;;;;;;;;;;14.20;99.90;;;;;;5071502;28;19962;-81
2021/10/15 05:05:24;;;;;;;;;;;14.20;99.90;;;;;;5072095;28;20250;-81
2021/10/15 05:07:51;;;;;;;;;;;14.20;99.90;;;;;;5069957;28;19917;-80
2021/10/15 05:10:17;;;;;;;;;;;14.20;99.90;;;;;;5066566;28;19924;-82
2021/10/15 05:12:43;;;;;;;;;;;14.10;99.90;;;;;;5085091;28;20339;-78
2021/10/15 05:15:09;;;;;;;;;;;14.10;99.90;;;;;;5064706;28;19916;-78
2021/10/15 05:17:35;;;;;;;;;;;14.10;99.90;;;;;;5071073;28;19917;-79
2021/10/15 05:20:01;;;;;;;;;;;14.00;99.90;;;;;;5071578;28;19923;-79
2021/10/15 05:22:27;;;;;;;;;;;13.90;99.90;;;;;;5063637;28;19916;-79
2021/10/15 05:24:52;;;;;;;;;;;13.80;99.90;;;;;;5070285;28;19921;-77
2021/10/15 05:27:18;;;;;;;;;;;13.70;99.90;;;;;;5063587;28;20328;-77
2021/10/15 05:29:47;;;;;;;;;;;13.70;99.90;;;;;;5070818;28;19917;-77
2021/10/15 05:32:14;;;;;;;;;;;13.60;99.90;;;;;;5074219;28;20003;-76
2021/10/15 05:34:39;;;;;;;;;;;13.60;99.90;;;;;;5069690;28;19916;-77
2021/10/15 05:37:05;;;;;;;;;;;13.50;99.90;;;;;;5072453;28;19947;-78
2021/10/15 05:39:30;;;;;;;;;;;13.50;99.90;;;;;;5071104;28;19931;-77
2021/10/15 05:41:56;;;;;;;;;;;13.50;99.90;;;;;;5068659;28;20003;-79
2021/10/15 05:44:21;;;;;;;;;;;13.40;99.90;;;;;;5078470;28;20243;-75
2021/10/15 05:46:47;;;;;;;;;;;13.40;99.90;;;;;;5068783;28;20312;-75
2021/10/15 05:49:12;;;;;;;;;;;13.40;99.90;;;;;;5068628;28;19935;-74
2021/10/15 05:51:42;;;;;;;;;;;13.40;99.90;;;;;;5068069;28;19924;-80
2021/10/15 05:54:10;;;;;;;;;;;13.30;99.90;;;;;;5070324;28;19919;-78
2021/10/15 05:56:44;;;;;;;;;;;12.80;99.90;;;;;;5068901;28;19958;-77
2021/10/15 05:59:09;;;;;;;;;;;12.30;99.90;;;;;;5071016;28;19959;-80
2021/10/15 06:01:36;;;;;;;;;;;12.10;99.90;;;;;;5071081;28;20374;-81
2021/10/15 06:14:34;;;;;;;;;;;11.20;99.90;;;;;;5062825;28;20059;-79
2021/10/15 06:17:11;;;;;;;;;;;11.10;99.90;;;;;;5062757;28;20308;-78
2021/10/15 06:19:47;;;;;;;;;;;11.10;99.90;;;;;;5063685;28;19921;-79
2021/10/15 06:22:13;;;;;;;;;;;11.10;99.90;;;;;;5076176;28;19916;-80
2021/10/15 06:24:38;;;;;;;;;;;11.00;99.90;;;;;;5065947;28;19919;-78
2021/10/15 06:27:04;;;;;;;;;;;11.10;99.90;;;;;;5073187;28;19924;-82
2021/10/15 06:29:30;;;;;;;;;;;11.00;99.90;;;;;;5058484;28;20000;-80
2021/10/15 06:31:55;;;;;;;;;;;10.90;99.90;;;;;;5055761;28;19924;-78
2021/10/15 06:34:21;;;;;;;;;;;10.90;99.90;;;;;;5059239;28;19948;-86
2021/10/15 06:36:46;;;;;;;;;;;10.80;99.90;;;;;;5074344;28;19925;-83
2021/10/15 06:39:12;;;;;;;;;;;10.90;99.90;;;;;;5088461;28;19936;-88
2021/10/15 06:41:37;;;;;;;;;;;10.90;99.90;;;;;;5088122;28;19916;-83
2021/10/15 06:44:03;;;;;;;;;;;10.90;99.90;;;;;;5077738;28;19965;-87
2021/10/15 06:46:29;;;;;;;;;;;10.80;99.90;;;;;;5072863;28;20285;-81
2021/10/15 06:48:54;;;;;;;;;;;10.90;99.90;;;;;;5071649;28;19916;-81
2021/10/15 06:51:20;;;;;;;;;;;10.80;99.90;;;;;;5074328;28;19916;-84
2021/10/15 06:53:46;;;;;;;;;;;10.90;99.90;;;;;;5073670;28;19948;-82
2021/10/15 06:56:11;;;;;;;;;;;10.90;99.90;;;;;;5072094;28;19913;-84
2021/10/15 06:58:37;;;;;;;;;;;10.80;99.90;;;;;;5073923;28;19912;-84
2021/10/15 07:01:03;;;;;;;;;;;10.80;99.90;;;;;;5077035;28;19923;-81
2021/10/15 07:03:29;;;;;;;;;;;10.80;99.90;;;;;;5088845;28;21193;-85
2021/10/15 07:05:54;;;;;;;;;;;10.90;99.90;;;;;;5074517;28;19974;-85
2021/10/15 07:08:20;;;;;;;;;;;10.90;99.90;;;;;;5074188;28;19946;-86
2021/10/15 07:10:45;;;;;;;;;;;10.90;99.90;;;;;;5073385;28;19919;-83
2021/10/15 07:13:14;;;;;;;;;;;10.90;99.90;;;;;;5072736;28;19999;-83
2021/10/15 07:15:40;;;;;;;;;;;10.90;99.90;;;;;;5073670;28;19913;-85
2021/10/15 07:18:07;;;;;;;;;;;10.90;99.90;;;;;;5067980;28;19944;-85
2021/10/15 07:20:32;;;;;;;;;;;10.90;99.90;;;;;;5074862;28;20311;-87
2021/10/15 07:22:58;;;;;;;;;;;10.90;99.90;;;;;;5071482;28;20007;-87
2021/10/15 07:25:24;;;;;;;;;;;10.90;99.90;;;;;;5076776;28;19920;-80
2021/10/15 07:27:50;;;;;;;;;;;11.00;99.90;;;;;;5066178;28;19912;-82
2021/10/15 07:30:15;;;;;;;;;;;10.90;99.90;;;;;;5074591;28;20304;-80
2021/10/15 07:32:41;;;;;;;;;;;10.90;99.90;;;;;;5072439;28;19978;-81
2021/10/15 07:35:07;;;;;;;;;;;11.00;99.90;;;;;;5066641;28;19916;-84
2021/10/15 07:37:33;;;;;;;;;;;11.00;99.90;;;;;;5059568;28;20003;-83
2021/10/15 07:39:58;;;;;;;;;;;10.90;99.90;;;;;;5066598;28;20316;-82
2021/10/15 07:42:24;;;;;;;;;;;11.00;99.90;;;;;;5067610;28;19912;-84
2021/10/15 07:44:50;;;;;;;;;;;11.10;99.90;;;;;;5059889;28;20316;-84
2021/10/15 07:47:15;;;;;;;;;;;11.00;99.90;;;;;;5063487;28;19954;-82
2021/10/15 07:49:41;;;;;;;;;;;11.00;99.90;;;;;;5068414;28;19917;-84
2021/10/15 07:52:07;;;;;;;;;;;11.00;99.90;;;;;;5070292;28;19996;-83
2021/10/15 07:54:33;;;;;;;;;;;11.10;99.90;;;;;;5059979;28;20307;-81
2021/10/15 07:56:59;;;;;;;;;;;11.10;99.90;;;;;;5072464;28;19913;-85
2021/10/15 07:59:25;;;;;;;;;;;11.10;99.90;;;;;;5084819;28;19999;-83
2021/10/15 08:01:51;;;;;;;;;;;11.20;99.90;;;;;;5062238;28;20036;-84
2021/10/15 08:04:17;;;;;;;;;;;11.20;99.90;;;;;;5062746;28;20007;-82
2021/10/15 08:06:42;;;;;;;;;;;11.30;99.90;;;;;;5075939;28;19917;-83
2021/10/15 08:09:08;;;;;;;;;;;11.30;99.90;;;;;;5066598;28;19916;-84
2021/10/15 08:11:33;;;;;;;;;;;11.30;99.90;;;;;;5080535;28;20192;-82
2021/10/15 08:13:59;;;;;;;;;;;11.40;99.90;;;;;;5075400;28;19913;-82
2021/10/15 08:16:25;;;;;;;;;;;11.50;99.90;;;;;;5072804;28;19916;-82
2021/10/15 08:18:50;;;;;;;;;;;11.50;99.90;;;;;;5080836;28;19962;-83
2021/10/15 08:21:18;;;;;;;;;;;11.50;99.90;;;;;;5069571;28;19920;-82
2021/10/15 08:23:44;;;;;;;;;;;11.60;99.90;;;;;;5073419;28;19916;-81
2021/10/15 08:26:10;;;;;;;;;;;11.80;99.90;;;;;;5071561;28;19924;-81
2021/10/15 08:28:36;;;;;;;;;;;12.10;99.90;;;;;;5070859;28;19917;-82
2021/10/15 08:31:02;;;;;;;;;;;12.50;99.90;;;;;;5071817;28;19927;-81
2021/10/15 08:33:27;;;;;;;;;;;12.60;99.90;;;;;;5073107;28;19924;-81
2021/10/15 08:35:53;;;;;;;;;;;12.60;99.90;;;;;;5073443;28;20023;-83
2021/10/15 08:38:18;;;;;;;;;;;12.60;99.90;;;;;;5076218;28;19920;-80
2021/10/15 08:40:47;;;;;;;;;;;12.30;99.90;;;;;;5071777;28;19921;-82
2021/10/15 08:43:13;;;;;;;;;;;12.30;99.90;;;;;;5067198;28;19924;-81
2021/10/15 08:45:39;;;;;;;;;;;12.30;99.90;;;;;;5073531;28;19916;-79
2021/10/15 08:48:05;;;;;;;;;;;12.40;99.90;;;;;;5060904;28;20200;-80
2021/10/15 08:50:31;;;;;;;;;;;12.60;99.90;;;;;;5069161;28;19912;-81
2021/10/15 08:52:56;;;;;;;;;;;12.80;99.90;;;;;;5061257;28;20293;-82
2021/10/15 08:55:22;;;;;;;;;;;12.90;99.90;;;;;;5058107;28;19919;-80
2021/10/15 08:57:53;;;;;;;;;;;13.00;99.90;;;;;;5059538;28;20008;-81
2021/10/15 09:00:20;;;;;;;;;;;13.00;99.90;;;;;;5065787;28;20021;-79
2021/10/15 09:02:47;;;;;;;;;;;13.10;99.90;;;;;;5061249;28;19916;-83
2021/10/15 09:05:13;;;;;;;;;;;13.40;99.90;;;;;;5068159;28;19913;-82
2021/10/15 09:07:52;;;;;;;;;;;13.50;99.90;;;;;;5071261;28;19950;-83
2021/10/15 09:10:19;;;;;;;;;;;13.50;99.90;;;;;;5069316;28;19912;-79
2021/10/15 09:12:46;;;;;;;;;;;13.60;99.90;;;;;;5071909;28;19920;-80
2021/10/15 09:15:12;;;;;;;;;;;13.60;99.90;;;;;;5070492;28;20325;-83
2021/10/15 09:17:49;;;;;;;;;;;13.40;99.90;;;;;;5073568;28;20266;-82
2021/10/15 09:20:25;;;;;;;;;;;13.30;99.90;;;;;;5070301;28;19924;-80
2021/10/15 09:22:50;;;;;;;;;;;13.30;99.90;;;;;;5073038;28;19952;-80
2021/10/15 09:25:16;;;;;;;;;;;13.20;99.90;;;;;;5071953;28;19952;-85
2021/10/15 09:27:43;;;;;;;;;;;13.30;99.90;;;;;;5067475;28;19939;-81
2021/10/15 09:30:10;;;;;;;;;;;13.40;99.90;;;;;;5070844;28;20483;-80
2021/10/15 09:32:39;;;;;;;;;;;13.50;99.90;;;;;;5072305;28;20529;-80
2021/10/15 09:35:06;;;;;;;;;;;13.60;99.90;;;;;;5070454;28;19947;-80
2021/10/15 09:37:36;;;;;;;;;;;13.70;99.90;;;;;;5066597;28;19924;-80
2021/10/15 09:40:16;;;;;;;;;;;13.70;99.90;;;;;;5070166;28;19916;-83
2021/10/15 09:42:45;;;;;;;;;;;13.80;99.90;;;;;;5085333;28;20193;-82
2021/10/15 09:45:15;;;;;;;;;;;13.90;99.90;;;;;;5071190;28;19916;-80
2021/10/15 09:47:44;;;;;;;;;;;13.90;99.90;;;;;;5070091;28;20388;-82
2021/10/15 09:50:11;;;;;;;;;;;14.20;99.90;;;;;;5069869;28;19924;-81
2021/10/15 09:52:51;;;;;;;;;;;14.50;99.90;;;;;;5067521;28;20196;-79
2021/10/15 09:55:22;;;;;;;;;;;14.50;99.90;;;;;;5079472;28;19916;-80
2021/10/15 09:57:49;;;;;;;;;;;14.60;99.90;;;;;;5084842;28;19923;-78
2021/10/15 10:00:16;;;;;;;;;;;14.50;99.90;;;;;;5077730;28;19928;-80
2021/10/15 10:02:41;;;;;;;;;;;14.50;99.90;;;;;;5070463;28;19923;-80
2021/10/15 10:05:13;;;;;;;;;;;14.50;99.90;;;;;;5076557;28;19912;-79
2021/10/15 10:07:39;;;;;;;;;;;14.30;99.90;;;;;;5070607;28;19916;-81
2021/10/15 10:10:05;;;;;;;;;;;14.20;99.90;;;;;;5072498;28;19924;-79
2021/10/15 10:12:33;;;;;;;;;;;14.20;99.90;;;;;;5071098;28;19966;-80
2021/10/15 10:14:58;;;;;;;;;;;14.30;99.90;;;;;;5064964;28;19944;-80
2021/10/15 10:17:26;;;;;;;;;;;14.20;99.90;;;;;;5067743;28;19954;-80
2021/10/15 10:19:54;;;;;;;;;;;14.00;99.90;;;;;;5069587;28;19924;-78
2021/10/15 10:22:20;;;;;;;;;;;14.00;99.90;;;;;;5071150;28;20153;-80
2021/10/15 10:24:48;;;;;;;;;;;13.90;99.90;;;;;;5074376;28;19913;-80
2021/10/15 10:27:24;;;;;;;;;;;13.60;99.90;;;;;;5069034;28;20210;-78
2021/10/15 10:29:54;;;;;;;;;;;13.30;99.90;;;;;;5085214;28;19917;-80
2021/10/15 10:32:21;;;;;;;;;;;13.10;99.90;;;;;;5066655;28;20011;-81
2021/10/15 10:34:46;;;;;;;;;;;13.20;99.90;;;;;;5068630;28;19917;-79
2021/10/15 10:37:15;;;;;;;;;;;13.30;99.90;;;;;;5072229;28;19943;-80
2021/10/15 10:39:40;;;;;;;;;;;13.40;99.90;;;;;;5086258;28;19920;-78
2021/10/15 10:42:18;;;;;;;;;;;13.50;99.90;;;;;;5089443;28;20103;-78
2021/10/15 10:44:50;;;;;;;;;;;13.60;99.90;;;;;;5067524;28;19920;-80
2021/10/15 10:47:25;;;;;;;;;;;13.70;99.90;;;;;;5066821;28;20370;-79
2021/10/15 10:50:04;;;;;;;;;;;13.70;99.90;;;;;;5085611;28;20280;-78
2021/10/15 10:52:30;;;;;;;;;;;13.90;99.90;;;;;;5068065;28;19999;-78
2021/10/15 10:54:56;;;;;;;;;;;14.00;99.90;;;;;;5072232;28;20003;-79
2021/10/15 10:57:23;;;;;;;;;;;14.20;99.90;;;;;;5069003;28;19922;-82
2021/10/15 10:59:51;;;;;;;;;;;14.20;99.90;;;;;;5072514;28;19913;-79
2021/10/15 11:02:19;;;;;;;;;;;14.00;99.90;;;;;;5069111;28;19912;-80
2021/10/15 11:04:45;;;;;;;;;;;13.60;99.90;;;;;;5068628;28;19979;-79
2021/10/15 11:07:16;;;;;;;;;;;13.30;99.90;;;;;;5065488;28;20299;-79
2021/10/15 11:09:42;;;;;;;;;;;13.10;99.90;;;;;;5073727;28;20003;-81
2021/10/15 11:12:09;;;;;;;;;;;13.00;99.90;;;;;;5065096;28;19995;-80
2021/10/15 11:14:54;;;;;;;;;;;12.90;99.90;;;;;;5066029;28;20312;-80
2021/10/15 11:17:30;;;;;;;;;;;12.80;99.90;;;;;;5063468;28;19919;-79
2021/10/15 11:20:16;;;;;;;;;;;12.90;99.90;;;;;;5069038;28;19931;-79
2021/10/15 11:22:43;;;;;;;;;;;12.90;99.90;;;;;;5070828;28;19917;-79
2021/10/15 11:25:09;;;;;;;;;;;13.00;99.90;;;;;;5066129;28;19921;-79
2021/10/15 11:27:35;;;;;;;;;;;13.10;99.90;;;;;;5062952;28;19913;-76
2021/10/15 11:30:03;;;;;;;;;;;13.20;99.90;;;;;;5073495;28;19950;-80
2021/10/15 11:32:40;;;;;;;;;;;13.30;99.90;;;;;;5072499;28;20448;-80
2021/10/15 11:35:07;;;;;;;;;;;13.30;99.90;;;;;;5067404;28;19946;-79
2021/10/15 11:37:50;;;;;;;;;;;13.40;99.90;;;;;;5066519;28;20381;-79
2021/10/15 11:40:21;;;;;;;;;;;13.40;99.90;;;;;;5063147;28;19921;-80
2021/10/15 11:42:47;;;;;;;;;;;13.40;99.90;;;;;;5064764;28;19917;-81
2021/10/15 11:45:22;;;;;;;;;;;13.60;99.90;;;;;;5068904;28;20260;-79
2021/10/15 11:47:57;;;;;;;;;;;13.70;99.90;;;;;;5062346;28;20043;-78
2021/10/15 11:50:32;;;;;;;;;;;13.70;99.90;;;;;;5060883;28;21243;-78
2021/10/15 11:52:57;;;;;;;;;;;13.50;99.90;;;;;;5066786;28;19927;-81
2021/10/15 11:55:28;;;;;;;;;;;13.50;99.90;;;;;;5066161;28;19916;-80
2021/10/15 11:58:13;;;;;;;;;;;13.60;99.90;;;;;;5065040;28;19924;-80
2021/10/15 12:00:52;;;;;;;;;;;13.70;99.90;;;;;;5063817;28;19942;-79
2021/10/15 12:03:25;;;;;;;;;;;13.80;99.90;;;;;;5063042;28;19913;-81
2021/10/15 12:05:51;;;;;;;;;;;13.80;99.90;;;;;;5070167;28;19912;-79
2021/10/15 12:08:17;;;;;;;;;;;13.70;99.90;;;;;;5070775;28;20303;-83
2021/10/15 12:10:42;;;;;;;;;;;13.70;99.90;;;;;;5070193;28;20220;-79
2021/10/15 12:13:08;;;;;;;;;;;13.80;99.90;;;;;;5071302;28;20026;-81
2021/10/15 12:15:34;;;;;;;;;;;13.80;99.90;;;;;;5072332;28;19917;-80
2021/10/15 12:18:08;;;;;;;;;;;13.70;99.90;;;;;;5072217;28;20003;-80
2021/10/15 12:20:34;;;;;;;;;;;13.80;99.90;;;;;;5070433;28;19974;-79
2021/10/15 12:23:03;;;;;;;;;;;13.90;99.90;;;;;;5072489;28;19912;-78
2021/10/15 12:25:29;;;;;;;;;;;14.00;99.90;;;;;;5071131;28;20303;-80
2021/10/15 12:27:55;;;;;;;;;;;14.10;99.90;;;;;;5073993;28;19927;-79
2021/10/15 12:30:24;;;;;;;;;;;14.00;99.90;;;;;;5083851;28;19920;-80
2021/10/15 12:32:50;;;;;;;;;;;13.90;99.90;;;;;;5070611;28;19916;-79
2021/10/15 12:35:16;;;;;;;;;;;13.70;99.90;;;;;;5071127;28;19927;-79
2021/10/15 12:37:45;;;;;;;;;;;13.60;99.90;;;;;;5066966;28;20019;-82
2021/10/15 12:40:16;;;;;;;;;;;13.70;99.90;;;;;;5069983;28;19920;-79
2021/10/15 12:42:43;;;;;;;;;;;14.00;99.90;;;;;;5074382;28;20213;-79
2021/10/15 12:45:10;;;;;;;;;;;13.90;99.90;;;;;;5071778;28;19912;-79
2021/10/15 12:47:35;;;;;;;;;;;13.70;99.90;;;;;;5074164;28;19973;-80
2021/10/15 12:50:03;;;;;;;;;;;13.50;99.90;;;;;;5070857;28;19920;-79
2021/10/15 12:52:28;;;;;;;;;;;13.40;99.90;;;;;;5072520;28;20399;-78
2021/10/15 12:54:54;;;;;;;;;;;13.30;99.90;;;;;;5072837;28;20018;-79
2021/10/15 12:57:21;;;;;;;;;;;13.20;99.90;;;;;;5088482;28;19916;-81
2021/10/15 13:00:19;;;;;;;;;;;13.30;99.90;;;;;;5090171;28;20057;-81
2021/10/15 13:02:46;;;;;;;;;;;13.50;99.90;;;;;;5029033;28;19929;-82
2021/10/15 13:05:12;;;;;;;;;;;13.70;99.90;;;;;;5019107;28;19999;-80
2021/10/15 13:07:38;;;;;;;;;;;13.80;99.90;;;;;;5019705;28;20376;-78
2021/10/15 13:10:21;;;;;;;;;;;13.80;99.90;;;;;;5029504;28;20240;-80
2021/10/15 13:12:48;;;;;;;;;;;13.80;99.90;;;;;;5035287;28;19992;-79
2021/10/15 13:15:15;;;;;;;;;;;13.90;99.90;;;;;;5031607;28;20266;-81
2021/10/15 13:17:40;;;;;;;;;;;13.90;99.90;;;;;;5013475;28;20023;-80
2021/10/15 13:20:07;;;;;;;;;;;13.80;99.90;;;;;;5009868;28;20015;-80
2021/10/15 13:22:33;;;;;;;;;;;13.60;99.90;;;;;;5033092;28;19913;-79
2021/10/15 13:24:58;;;;;;;;;;;13.50;99.90;;;;;;5022315;28;19920;-81
2021/10/15 13:27:24;;;;;;;;;;;13.50;99.90;;;;;;5031864;28;20263;-79
2021/10/15 13:29:50;;;;;;;;;;;13.60;99.90;;;;;;5018271;28;19913;-83
2021/10/15 13:32:15;;;;;;;;;;;13.60;99.90;;;;;;5025723;28;20020;-80
2021/10/15 13:34:45;;;;;;;;;;;13.60;99.90;;;;;;5015298;28;20306;-80
2021/10/15 13:37:13;;;;;;;;;;;13.60;99.90;;;;;;5028614;28;19931;-80
2021/10/15 13:39:45;;;;;;;;;;;13.60;99.90;;;;;;5073368;28;19919;-80
2021/10/15 13:49:48;;;;;;;;;;;13.70;99.90;;;;;;5075815;28;19919;-80
2021/10/15 13:52:17;;;;;;;;;;;13.70;99.90;;;;;;5079057;28;19919;-80
2021/10/15 13:54:44;;;;;;;;;;;13.80;99.90;;;;;;5075200;28;19935;-81
2021/10/15 13:57:15;;;;;;;;;;;13.80;99.90;;;;;;5071808;28;20526;-81
2021/10/15 14:00:29;;;;;;;;;;;14.00;99.90;;;;;;5071555;28;19912;-83
2021/10/15 14:02:33;;;;;;;;;;;13.70;99.90;;;;;;5069936;28;19952;-82
2021/10/15 14:04:59;;;;;;;;;;;13.40;99.90;;;;;;5078415;28;19912;-81
2021/10/15 14:07:25;;;;;;;;;;;13.40;99.90;;;;;;5062140;28;19924;-81
2021/10/15 14:09:53;;;;;;;;;;;13.20;99.90;;;;;;5070472;28;19913;-81
2021/10/15 14:12:21;;;;;;;;;;;13.20;99.90;;;;;;5072645;28;20706;-81
2021/10/15 14:14:49;;;;;;;;;;;13.10;99.90;;;;;;5071743;28;19916;-80
2021/10/15 14:17:14;;;;;;;;;;;13.10;99.90;;;;;;5057861;28;19917;-81
2021/10/15 14:19:40;;;;;;;;;;;12.90;99.90;;;;;;5069174;28;20008;-80
2021/10/15 14:22:06;;;;;;;;;;;12.80;99.90;;;;;;5069876;28;20341;-79
2021/10/15 14:24:35;;;;;;;;;;;12.60;99.90;;;;;;5067345;28;19927;-80
2021/10/15 14:27:02;;;;;;;;;;;12.50;99.90;;;;;;5066688;28;20312;-81
2021/10/15 14:29:28;;;;;;;;;;;12.50;99.90;;;;;;5070457;28;19916;-79
2021/10/15 14:31:54;;;;;;;;;;;12.40;99.90;;;;;;5064922;28;19917;-80
2021/10/15 14:34:20;;;;;;;;;;;12.40;99.90;;;;;;5069716;28;19936;-80